Time;durP1;ratioP1;P1;durP2;ratioP2;P2;SDS_P1;SDS_P2;PMS_P1;PMS_P2;Temp;Humidity;BMP_temperature;BMP_pressure;BME280_temperature;BME280_humidity;BME280_pressure;Samples;Min_cycle;Max_cycle;Signal;HPM_P1;HPM_P2
2023/08/22 00:00:36;;;;;;;5.63;3.00;;;;;;;28.55;31.31;98833.72;4992873;28;20035;-83
2023/08/22 00:03:02;;;;;;;5.38;2.95;;;;;;;28.55;31.42;98840.97;4977999;28;20110;-83
2023/08/22 00:05:28;;;;;;;7.68;2.92;;;;;;;28.56;31.43;98832.69;4977612;28;20030;-84
2023/08/22 00:07:53;;;;;;;6.20;2.83;;;;;;;28.51;31.81;98838.75;4993898;28;20088;-83
2023/08/22 00:10:19;;;;;;;6.82;2.90;;;;;;;28.54;31.74;98842.81;4977267;28;20041;-84
2023/08/22 00:12:44;;;;;;;7.00;3.05;;;;;;;28.53;32.00;98838.50;4993204;28;20054;-83
2023/08/22 00:15:12;;;;;;;8.93;3.13;;;;;;;28.52;32.33;98836.88;4993777;28;20050;-84
2023/08/22 00:17:37;;;;;;;8.13;3.15;;;;;;;28.50;32.11;98842.47;4977180;28;20073;-83
2023/08/22 00:20:08;;;;;;;7.40;2.95;;;;;;;28.51;32.36;98837.91;4977638;28;20062;-83
2023/08/22 00:22:36;;;;;;;6.80;2.95;;;;;;;28.46;32.19;98830.53;4977436;28;20035;-83
2023/08/22 00:25:03;;;;;;;6.63;3.08;;;;;;;28.50;32.34;98838.97;4943973;28;20126;-83
2023/08/22 00:27:28;;;;;;;8.98;3.17;;;;;;;28.51;32.45;98833.38;4977269;28;20430;-83
2023/08/22 00:29:56;;;;;;;7.70;3.20;;;;;;;28.49;32.32;98824.72;4993257;28;20037;-83
2023/08/22 00:32:21;;;;;;;;;;;;;;;28.54;32.30;98832.06;4961430;28;20030;-83
2023/08/22 00:34:47;;;;;;;11.25;3.22;;;;;;;28.51;32.49;98828.00;4992967;28;19940;-82
2023/08/22 00:37:15;;;;;;;9.25;3.10;;;;;;;28.51;32.36;98819.09;4992702;28;20485;-83
2023/08/22 00:39:41;;;;;;;6.70;3.05;;;;;;;28.54;32.35;98825.91;4993569;28;20516;-83
2023/08/22 00:42:06;;;;;;;6.00;2.90;;;;;;;28.56;32.60;98827.31;4994193;28;20027;-83
2023/08/22 00:44:32;;;;;;;9.02;3.58;;;;;;;28.58;32.20;98825.22;4977080;28;20033;-83
2023/08/22 00:46:57;;;;;;;4.45;3.10;;;;;;;28.61;32.36;98826.66;4993972;28;20030;-83
2023/08/22 00:49:23;;;;;;;8.43;3.05;;;;;;;28.62;32.28;98823.72;4976975;28;20030;-84
2023/08/22 00:51:48;;;;;;;7.55;2.80;;;;;;;28.62;32.30;98821.03;4976688;28;20031;-83
2023/08/22 00:54:14;;;;;;;6.78;3.30;;;;;;;28.67;32.62;98817.63;4992576;28;20052;-84
2023/08/22 00:56:40;;;;;;;8.25;3.08;;;;;;;28.72;32.30;98822.31;4960490;28;20405;-84
2023/08/22 00:59:06;;;;;;;5.65;3.00;;;;;;;28.72;32.35;98827.69;4976426;28;20034;-83
2023/08/22 01:01:31;;;;;;;10.32;2.92;;;;;;;28.74;32.44;98826.41;4993414;28;20386;-84
2023/08/22 01:03:57;;;;;;;9.57;3.17;;;;;;;28.75;32.47;98827.22;4992975;28;20044;-84
2023/08/22 01:06:41;;;;;;;6.75;2.95;;;;;;;28.73;32.49;98823.94;4992583;28;20037;-84
2023/08/22 01:09:29;;;;;;;7.85;3.20;;;;;;;28.70;32.88;98830.59;4992340;28;20031;-84
2023/08/22 01:11:59;;;;;;;5.85;3.20;;;;;;;28.70;32.95;98833.28;4992163;28;20047;-84
2023/08/22 01:14:25;;;;;;;9.45;3.30;;;;;;;28.67;33.03;98831.06;4976518;28;20406;-84
2023/08/22 01:16:50;;;;;;;6.78;3.00;;;;;;;28.63;32.86;98836.09;4992218;28;20070;-84
2023/08/22 01:19:18;;;;;;;8.00;3.22;;;;;;;28.60;33.15;98831.19;4976033;28;20026;-84
2023/08/22 01:21:50;;;;;;;9.00;3.40;;;;;;;28.60;33.32;98835.75;4992096;28;20088;-84
2023/08/22 01:24:16;;;;;;;6.38;3.33;;;;;;;28.56;33.01;98830.00;4992243;28;20113;-83
2023/08/22 01:26:43;;;;;;;7.25;3.45;;;;;;;28.53;33.06;98825.09;4992416;28;20593;-83
2023/08/22 01:29:10;;;;;;;6.50;3.28;;;;;;;28.53;33.32;98835.81;4975969;28;20031;-83
2023/08/22 01:31:35;;;;;;;7.53;3.40;;;;;;;28.52;33.50;98840.34;4992166;28;20490;-83
2023/08/22 01:34:24;;;;;;;7.35;3.63;;;;;;;28.50;33.10;98837.09;4993018;28;20064;-84
2023/08/22 01:36:52;;;;;;;7.20;3.38;;;;;;;28.47;33.64;98844.81;4992313;28;20030;-83
2023/08/22 01:39:18;;;;;;;11.80;3.85;;;;;;;28.43;33.61;98840.94;4975809;28;20117;-82
2023/08/22 01:41:43;;;;;;;5.70;3.63;;;;;;;28.40;33.82;98842.22;4991959;28;20105;-83
2023/08/22 01:44:09;;;;;;;7.93;3.53;;;;;;;28.38;33.75;98838.94;4975960;28;20042;-81
2023/08/22 01:46:34;;;;;;;6.80;3.72;;;;;;;28.38;33.85;98840.81;4991838;28;20445;-83
2023/08/22 01:49:00;;;;;;;11.93;3.78;;;;;;;28.31;33.93;98835.56;4992970;28;20026;-82
2023/08/22 01:51:25;;;;;;;6.32;3.72;;;;;;;28.34;33.73;98845.84;4991506;28;20357;-82
2023/08/22 01:53:51;;;;;;;6.72;3.80;;;;;;;28.29;34.14;98838.47;5008288;28;20038;-83
2023/08/22 01:56:16;;;;;;;5.15;3.58;;;;;;;28.33;33.99;98844.19;4991574;28;20034;-83
2023/08/22 01:58:42;;;;;;;8.25;3.90;;;;;;;28.31;34.32;98836.38;5007968;28;20105;-83
2023/08/22 02:01:11;;;;;;;6.85;4.00;;;;;;;28.32;34.25;98840.69;4991661;28;20047;-83
2023/08/22 02:03:36;;;;;;;8.15;4.30;;;;;;;28.29;34.36;98840.31;4991724;28;20492;-82
2023/08/22 02:06:02;;;;;;;6.80;3.90;;;;;;;28.28;34.29;98836.00;4991404;28;20034;-83
2023/08/22 02:08:28;;;;;;;7.03;3.97;;;;;;;28.28;34.40;98839.50;4991731;28;20026;-83
2023/08/22 02:10:54;;;;;;;6.20;3.90;;;;;;;28.28;34.36;98839.50;4991691;28;20484;-83
2023/08/22 02:13:19;;;;;;;10.68;3.55;;;;;;;28.27;34.50;98845.09;4991374;28;20046;-81
2023/08/22 02:15:45;;;;;;;7.65;3.60;;;;;;;28.26;34.20;98844.28;4991582;28;20030;-82
2023/08/22 02:18:10;;;;;;;10.43;3.45;;;;;;;28.28;34.31;98841.38;5008217;28;20037;-82
2023/08/22 02:20:36;;;;;;;6.78;3.85;;;;;;;28.28;34.36;98844.06;4974921;28;20045;-82
2023/08/22 02:23:04;;;;;;;10.80;3.70;;;;;;;28.28;34.07;98842.19;4976741;28;20031;-83
2023/08/22 02:25:31;;;;;;;6.05;3.60;;;;;;;28.27;34.19;98840.53;4995590;28;20030;-81
2023/08/22 02:27:57;;;;;;;6.40;4.05;;;;;;;28.24;34.40;98837.50;5011760;28;20026;-81
2023/08/22 02:30:22;;;;;;;5.78;3.80;;;;;;;28.25;34.05;98831.91;5011969;28;20041;-82
2023/08/22 02:32:48;;;;;;;7.22;3.92;;;;;;;28.28;34.43;98839.50;4996197;28;20027;-81
2023/08/22 02:35:13;;;;;;;6.95;3.90;;;;;;;28.27;34.31;98832.50;4996193;28;20517;-81
2023/08/22 02:37:39;;;;;;;7.22;3.95;;;;;;;28.31;34.15;98836.38;4979063;28;20085;-81
2023/08/22 02:40:08;;;;;;;9.93;3.80;;;;;;;28.32;34.11;98831.81;4995479;28;20138;-81
2023/08/22 02:42:33;;;;;;;7.13;3.80;;;;;;;28.37;34.18;98836.47;4995058;28;20033;-81
2023/08/22 02:44:59;;;;;;;13.20;4.10;;;;;;;28.35;34.08;98844.75;4995091;28;20493;-82
2023/08/22 02:47:25;;;;;;;5.95;3.78;;;;;;;28.36;34.23;98843.72;4977392;28;20066;-80
2023/08/22 02:49:50;;;;;;;6.38;4.18;;;;;;;28.36;33.97;98838.34;4980277;28;20038;-83
2023/08/22 02:52:16;;;;;;;7.00;3.72;;;;;;;28.33;33.97;98836.13;4961686;28;20030;-77
2023/08/22 02:54:41;;;;;;;8.57;3.88;;;;;;;28.41;34.49;98843.03;4976956;28;20050;-71
2023/08/22 02:57:07;;;;;;;8.73;3.65;;;;;;;28.40;34.41;98847.59;4996151;28;20035;-75
2023/08/22 02:59:33;;;;;;;9.95;3.97;;;;;;;28.43;34.51;98851.66;4977674;28;20026;-73
2023/08/22 03:01:58;;;;;;;5.97;3.80;;;;;;;28.41;34.44;98845.72;4994217;28;20038;-74
2023/08/22 03:04:24;;;;;;;16.92;5.00;;;;;;;28.47;34.89;98856.34;4994684;28;20030;-74
2023/08/22 03:06:49;;;;;;;11.30;4.18;;;;;;;28.45;35.20;98845.03;4994897;28;20101;-77
2023/08/22 03:09:17;;;;;;;13.18;4.10;;;;;;;28.47;34.76;98852.84;4979545;28;20038;-88
2023/08/22 03:11:42;;;;;;;;;;;;;;;28.49;34.91;98850.75;4977861;28;20050;-86
2023/08/22 03:14:09;;;;;;;11.60;4.45;;;;;;;28.44;35.59;98850.63;5013123;28;19944;-81
2023/08/22 03:16:34;;;;;;;14.68;4.30;;;;;;;28.46;35.77;98846.66;4994992;28;20124;-79
2023/08/22 03:19:00;;;;;;;7.45;4.10;;;;;;;28.45;35.50;98850.41;4993475;28;20510;-81
2023/08/22 03:21:25;;;;;;;5.30;3.90;;;;;;;28.47;34.91;98850.97;4991006;28;20093;-77
2023/08/22 03:23:51;;;;;;;8.32;4.40;;;;;;;28.49;34.82;98853.44;4991277;28;20027;-77
2023/08/22 03:26:16;;;;;;;7.93;4.43;;;;;;;28.49;34.80;98851.56;4975119;28;20039;-85
2023/08/22 03:28:42;;;;;;;7.10;4.07;;;;;;;28.55;34.33;98849.03;4990014;28;20065;-79
2023/08/22 03:31:07;;;;;;;9.27;4.20;;;;;;;28.55;34.50;98857.88;4994809;28;20035;-77
2023/08/22 03:33:33;;;;;;;7.82;4.03;;;;;;;28.54;34.14;98852.75;4973904;28;20037;-77
2023/08/22 03:35:58;;;;;;;6.57;3.90;;;;;;;28.60;34.14;98858.03;4992549;28;20113;-77
2023/08/22 03:38:25;;;;;;;10.63;3.97;;;;;;;28.64;34.12;98859.22;4993734;28;20109;-78
2023/08/22 03:40:54;;;;;;;7.45;3.63;;;;;;;28.72;33.93;98859.91;4993406;28;20038;-78
2023/08/22 03:43:19;;;;;;;6.07;3.75;;;;;;;28.82;33.57;98852.09;4976907;28;20037;-79
2023/08/22 03:45:45;;;;;;;10.02;3.88;;;;;;;28.90;33.70;98856.31;4993014;28;20042;-78
2023/08/22 03:48:11;;;;;;;7.10;3.60;;;;;;;29.09;33.12;98860.50;4993111;28;20034;-78
2023/08/22 03:50:40;;;;;;;9.45;3.85;;;;;;;29.29;32.82;98860.16;4977652;28;20078;-78
2023/08/22 03:53:06;;;;;;;8.57;3.40;;;;;;;29.47;32.67;98858.38;4993780;28;20031;-78
2023/08/22 03:55:31;;;;;;;6.07;3.63;;;;;;;29.71;32.14;98862.59;4993950;28;20440;-78
2023/08/22 03:57:58;;;;;;;7.10;3.63;;;;;;;29.90;31.99;98857.91;4993789;28;20037;-78
2023/08/22 04:00:27;;;;;;;7.03;3.50;;;;;;;30.22;31.12;98860.09;4977156;28;20092;-77
2023/08/22 04:02:56;;;;;;;7.10;3.55;;;;;;;30.64;30.90;98864.31;4993183;28;20473;-77
2023/08/22 04:05:22;;;;;;;9.30;3.67;;;;;;;30.95;30.13;98848.63;4960904;28;20030;-78
2023/08/22 04:07:48;;;;;;;5.28;3.40;;;;;;;31.40;29.54;98869.19;4977211;28;20565;-77
2023/08/22 04:10:14;;;;;;;8.68;3.72;;;;;;;31.84;28.58;98863.81;4976846;28;20031;-78
2023/08/22 04:12:39;;;;;;;8.95;3.53;;;;;;;32.32;28.25;98855.13;4993324;28;20475;-80
2023/08/22 04:15:05;;;;;;;5.43;3.40;;;;;;;32.78;27.54;98853.63;4993200;28;20041;-79
2023/08/22 04:17:31;;;;;;;9.00;3.40;;;;;;;33.17;27.27;98847.06;5009767;28;20042;-77
2023/08/22 04:19:56;;;;;;;6.55;3.30;;;;;;;33.75;26.31;98854.38;4993139;28;20033;-79
2023/08/22 04:22:21;;;;;;;6.75;3.35;;;;;;;34.16;25.47;98859.88;4989873;28;20058;-79
2023/08/22 04:24:47;;;;;;;9.88;3.38;;;;;;;34.60;24.72;98854.78;4989925;28;20043;-78
2023/08/22 04:27:12;;;;;;;10.60;3.42;;;;;;;35.00;23.97;98865.03;4989902;28;20081;-78
2023/08/22 04:29:38;;;;;;;13.88;3.17;;;;;;;35.61;23.65;98856.69;4967183;28;20497;-80
2023/08/22 04:32:04;;;;;;;9.65;3.00;;;;;;;36.01;23.16;98870.38;4993084;28;20064;-78
2023/08/22 04:34:29;;;;;;;9.65;3.10;;;;;;;36.46;22.71;98864.91;4992841;28;20453;-79
2023/08/22 04:36:55;;;;;;;7.22;3.13;;;;;;;36.98;22.28;98868.78;4976507;28;20088;-78
2023/08/22 04:39:20;;;;;;;8.63;3.05;;;;;;;37.46;21.73;98870.72;4992684;28;20042;-78
2023/08/22 04:41:46;;;;;;;8.07;2.67;;;;;;;37.88;20.95;98876.47;4976602;28;20027;-79
2023/08/22 04:44:11;;;;;;;9.48;3.60;;;;;;;38.30;20.65;98881.03;4992999;28;20378;-79
2023/08/22 04:46:37;;;;;;;9.45;2.85;;;;;;;38.69;20.37;98885.28;4975980;28;20034;-79
2023/08/22 04:49:02;;;;;;;7.03;2.92;;;;;;;39.12;19.90;98875.28;4973030;28;20410;-79
2023/08/22 04:51:28;;;;;;;9.00;3.22;;;;;;;39.39;19.60;98888.13;4973524;28;20387;-78
2023/08/22 04:53:54;;;;;;;4.88;2.60;;;;;;;39.62;19.18;98894.50;4973321;28;20038;-78
2023/08/22 04:56:19;;;;;;;6.85;2.92;;;;;;;39.92;18.95;98887.53;4989309;28;20030;-75
2023/08/22 04:58:45;;;;;;;8.55;2.63;;;;;;;40.61;18.63;98888.41;4975961;28;20046;-72
2023/08/22 05:01:11;;;;;;;6.93;2.70;;;;;;;41.35;17.99;98887.81;4993448;28;20022;-71
2023/08/22 05:03:37;;;;;;;7.57;2.60;;;;;;;42.05;17.16;98890.69;4975877;28;20061;-71
2023/08/22 05:06:02;;;;;;;8.07;2.42;;;;;;;42.65;16.82;98885.47;4976096;28;20069;-72
2023/08/22 05:08:28;;;;;;;8.90;2.58;;;;;;;43.16;16.52;98891.16;4992044;28;20038;-71
2023/08/22 05:10:53;;;;;;;4.73;2.27;;;;;;;43.65;15.98;98886.03;4993400;28;20030;-72
2023/08/22 05:13:18;;;;;;;5.40;2.30;;;;;;;44.11;15.39;98882.63;4975474;28;20137;-73
2023/08/22 05:15:44;;;;;;;6.17;2.30;;;;;;;44.52;15.32;98880.94;4976144;28;20030;-73
2023/08/22 05:18:09;;;;;;;5.50;2.30;;;;;;;44.89;15.33;98887.34;4991858;28;20073;-72
2023/08/22 05:20:35;;;;;;;15.33;2.50;;;;;;;45.16;14.82;98880.38;4992040;28;20180;-75
2023/08/22 05:23:01;;;;;;;8.87;2.37;;;;;;;45.48;14.61;98879.81;4976980;28;20035;-76
2023/08/22 05:25:26;;;;;;;7.97;2.30;;;;;;;45.65;14.48;98892.53;4959679;28;20491;-73
2023/08/22 05:27:52;;;;;;;8.50;2.17;;;;;;;45.97;14.09;98890.72;4991556;28;20049;-72
2023/08/22 05:30:17;;;;;;;8.43;2.03;;;;;;;46.22;13.83;98888.69;4991577;28;20058;-72
2023/08/22 05:32:43;;;;;;;57.60;23.65;;;;;;;46.44;13.92;98897.56;4991712;28;20022;-72
2023/08/22 05:35:09;;;;;;;40.83;17.47;;;;;;;46.64;14.05;98895.75;4992984;28;20054;-73
2023/08/22 05:37:35;;;;;;;29.30;12.90;;;;;;;46.84;13.55;98891.13;4992053;28;20684;-74
2023/08/22 05:40:00;;;;;;;32.70;11.70;;;;;;;46.96;13.70;98892.25;4991674;28;20524;-75
2023/08/22 05:42:26;;;;;;;24.97;8.90;;;;;;;47.17;13.83;98892.72;4975305;28;20035;-73
2023/08/22 05:44:52;;;;;;;14.93;6.30;;;;;;;47.32;13.91;98893.09;4975270;28;20084;-72
2023/08/22 05:47:17;;;;;;;14.97;5.60;;;;;;;47.48;13.65;98897.44;4991799;28;20038;-74
2023/08/22 05:49:43;;;;;;;15.30;5.20;;;;;;;47.56;13.50;98889.31;4991901;28;20502;-74
2023/08/22 05:52:09;;;;;;;;;;;;;;;47.54;13.60;98888.84;4992125;28;20034;-73
2023/08/22 05:54:34;;;;;;;;;;;;;;;47.60;13.68;98887.41;4992161;28;20285;-74
2023/08/22 05:57:00;;;;;;;10.57;3.33;;;;;;;47.80;13.86;98891.81;4991276;28;20381;-73
2023/08/22 05:59:25;;;;;;;9.20;3.00;;;;;;;47.92;13.89;98896.41;4975134;28;20030;-73
2023/08/22 06:01:51;;;;;;;7.53;3.13;;;;;;;48.04;13.33;98892.72;5007707;28;20033;-73
2023/08/22 06:04:17;;;;;;;11.80;3.00;;;;;;;48.13;13.08;98890.53;4975234;28;20173;-73
2023/08/22 06:06:43;;;;;;;6.22;2.80;;;;;;;48.21;13.37;98887.91;4991568;28;20145;-76
2023/08/22 06:09:09;;;;;;;5.57;2.65;;;;;;;48.32;13.24;98891.66;4975441;28;20157;-73
2023/08/22 06:11:34;;;;;;;10.40;2.40;;;;;;;48.40;12.85;98892.59;4975043;28;20077;-73
2023/08/22 06:14:00;;;;;;;6.47;2.33;;;;;;;48.51;12.88;98893.63;4991265;28;20085;-71
2023/08/22 06:16:25;;;;;;;7.57;2.40;;;;;;;48.51;13.21;98899.94;4991238;28;20070;-73
2023/08/22 06:18:51;;;;;;;7.63;2.20;;;;;;;48.54;13.08;98902.00;4974976;28;20042;-74
2023/08/22 06:21:16;;;;;;;10.67;2.20;;;;;;;48.61;12.83;98900.53;4991532;28;20042;-75
2023/08/22 06:23:42;;;;;;;9.93;2.43;;;;;;;48.60;12.85;98898.91;4993020;28;20038;-76
2023/08/22 06:26:10;;;;;;;9.87;2.30;;;;;;;48.33;11.96;98905.16;4991056;28;20473;-74
2023/08/22 06:28:35;;;;;;;7.05;2.10;;;;;;;48.49;12.62;98893.16;4975195;28;20130;-76
2023/08/22 06:31:05;;;;;;;13.97;1.97;;;;;;;48.37;10.42;98900.47;4975403;28;20058;-78
2023/08/22 06:33:30;;;;;;;7.63;2.20;;;;;;;48.13;10.60;98906.34;4991042;28;20026;-76
2023/08/22 06:35:56;;;;;;;6.87;2.10;;;;;;;48.33;11.29;98904.31;4975026;28;20030;-77
2023/08/22 06:38:22;;;;;;;6.83;2.07;;;;;;;48.22;9.87;98900.56;4975537;28;20702;-78
2023/08/22 06:40:48;;;;;;;8.05;1.85;;;;;;;48.00;10.44;98895.38;4975156;28;20512;-78
2023/08/22 06:43:14;;;;;;;8.68;2.40;;;;;;;48.21;11.63;98899.78;4975459;28;20026;-77
2023/08/22 06:45:39;;;;;;;5.97;2.10;;;;;;;48.38;11.59;98901.28;4991426;28;20481;-77
2023/08/22 06:48:05;;;;;;;5.93;1.80;;;;;;;48.48;12.07;98895.16;4992849;28;20034;-78
2023/08/22 06:50:30;;;;;;;7.82;2.10;;;;;;;48.63;12.27;98907.28;4975522;28;20121;-84
2023/08/22 06:52:56;;;;;;;6.10;1.90;;;;;;;48.68;12.48;98895.91;4992214;28;20500;-85
2023/08/22 06:55:21;;;;;;;6.03;2.10;;;;;;;48.73;12.79;98898.34;4975666;28;20041;-85
2023/08/22 06:57:47;;;;;;;16.23;2.80;;;;;;;48.84;12.33;98906.09;4992165;28;20026;-85
2023/08/22 07:00:14;;;;;;;6.97;2.03;;;;;;;48.84;12.39;98908.88;4975711;28;20079;-83
2023/08/22 07:02:44;;;;;;;16.00;2.03;;;;;;;48.95;11.71;98911.78;4976178;28;20085;-85
2023/08/22 07:05:10;;;;;;;8.88;1.75;;;;;;;48.32;10.67;98913.81;4977745;28;20421;-83
2023/08/22 07:07:36;;;;;;;17.35;2.10;;;;;;;48.28;10.94;98908.19;4972539;28;20505;-81
2023/08/22 07:10:05;;;;;;;9.98;1.95;;;;;;;48.43;11.72;98914.84;4991558;28;20034;-80
2023/08/22 07:12:31;;;;;;;6.72;2.17;;;;;;;48.27;11.85;98903.84;4975211;28;20461;-86
2023/08/22 07:14:56;;;;;;;8.60;2.83;;;;;;;48.28;11.85;98908.19;4991012;28;20050;-74
2023/08/22 07:17:22;;;;;;;11.03;2.17;;;;;;;48.27;11.75;98903.84;4976192;28;20089;-73
2023/08/22 07:19:47;;;;;;;10.13;2.53;;;;;;;48.35;12.11;98911.09;4991023;28;20131;-73
2023/08/22 07:22:13;;;;;;;14.93;2.40;;;;;;;48.36;12.14;98912.72;4991144;28;20033;-74
2023/08/22 07:24:38;;;;;;;8.53;2.37;;;;;;;48.35;12.32;98907.53;4990958;28;20031;-75
2023/08/22 07:27:04;;;;;;;4.37;2.03;;;;;;;48.45;12.36;98903.41;4975217;28;20474;-76
2023/08/22 07:29:29;;;;;;;6.35;2.38;;;;;;;48.41;12.39;98900.56;4975807;28;20045;-73
2023/08/22 07:31:59;;;;;;;8.90;2.27;;;;;;;48.25;11.74;98908.13;4990911;28;20117;-72
2023/08/22 07:34:25;;;;;;;11.18;2.47;;;;;;;48.15;12.04;98907.56;4990682;28;20475;-73
2023/08/22 07:36:51;;;;;;;15.67;2.80;;;;;;;48.06;11.99;98906.19;4974341;28;20114;-73
2023/08/22 07:39:18;;;;;;;;;;;;;;;47.40;12.24;98901.19;4974481;28;20093;-73
2023/08/22 07:41:43;;;;;;;8.30;2.55;;;;;;;47.50;12.63;98902.59;4974570;28;19949;-72
2023/08/22 07:44:09;;;;;;;10.57;2.80;;;;;;;47.25;12.96;98902.00;4974052;28;20078;-74
2023/08/22 07:46:34;;;;;;;14.70;2.77;;;;;;;47.36;12.74;98905.84;4974326;28;20030;-74
2023/08/22 07:49:00;;;;;;;6.97;2.40;;;;;;;47.52;12.93;98905.78;4990433;28;20035;-73
2023/08/22 07:51:25;;;;;;;8.70;2.43;;;;;;;47.68;12.66;98905.75;4990870;28;20051;-74
2023/08/22 07:53:51;;;;;;;7.00;2.70;;;;;;;47.49;12.34;98909.28;4975222;28;20023;-72
2023/08/22 07:56:17;;;;;;;;;;;;;;;47.34;12.30;98910.94;4975051;28;20027;-71
2023/08/22 07:58:42;;;;;;;;;;;;;;;47.36;12.47;98907.81;4974981;28;20349;-71
2023/08/22 08:01:09;;;;;;;;;;;;;;;47.20;12.37;98907.81;4975824;28;19918;-75
2023/08/22 08:03:34;;;;;;;;;;;;;;;47.23;12.23;98907.09;4974748;28;19922;-71
2023/08/22 08:05:59;;;;;;;;;;;;;;;47.48;12.71;98916.78;4975781;28;19937;-70
2023/08/22 08:08:24;;;;;;;;;;;;;;;47.72;12.66;98914.16;4974451;28;20353;-70
2023/08/22 08:10:50;;;;;;;;;;;;;;;47.82;12.07;98910.81;4974421;28;19913;-70
2023/08/22 08:13:15;;;;;;;;;;;;;;;47.82;12.07;98910.81;4975411;28;19946;-70
2023/08/22 08:15:41;;;;;;;;;;;;;;;47.12;11.85;98904.06;4974467;28;19914;-68
2023/08/22 08:18:06;;;;;;;;;;;;;;;47.29;11.80;98902.88;4974382;28;19914;-69
2023/08/22 08:20:32;;;;;;;;;;;;;;;47.40;11.84;98905.94;4973242;28;20034;-70
2023/08/22 08:22:57;;;;;;;;;;;;;;;47.51;12.36;98906.97;4974130;28;19914;-68
2023/08/22 08:25:22;;;;;;;;;;;;;;;47.59;11.95;98897.66;4974153;28;19914;-68
2023/08/22 08:27:48;;;;;;;;;;;;;;;47.31;12.21;98899.78;4975289;28;19981;-68
2023/08/22 08:30:14;;;;;;;;;;;;;;;46.93;12.53;98897.28;4975218;28;19957;-68
2023/08/22 08:32:39;;;;;;;;;;;;;;;46.90;12.98;98897.19;4975500;28;19918;-70
2023/08/22 08:35:05;;;;;;;;;;;;;;;47.27;12.80;98894.97;4973893;28;19926;-70
2023/08/22 08:37:30;;;;;;;;;;;;;;;47.39;12.96;98891.28;4957630;28;19957;-69
2023/08/22 08:39:55;;;;;;;;;;;;;;;47.11;12.91;98899.69;4973975;28;19972;-69
2023/08/22 08:42:21;;;;;;;;;;;;;;;47.06;12.96;98886.94;4974089;28;19917;-69
2023/08/22 08:44:46;;;;;;;;;;;;;;;47.03;13.20;98881.34;4974013;28;19914;-69
2023/08/22 08:47:11;;;;;;;;;;;;;;;46.97;13.47;98885.53;4973778;28;19962;-69
2023/08/22 08:49:37;;;;;;;;;;;;;;;47.11;12.38;98894.16;4973669;28;20385;-69
2023/08/22 08:52:02;;;;;;;;;;;;;;;46.83;12.75;98891.47;4973472;28;19914;-70
2023/08/22 08:54:28;;;;;;;;;;;;;;;46.74;12.51;98894.44;4973409;28;20378;-69
2023/08/22 08:56:54;;;;;;;;;;;;;;;46.36;13.26;98893.81;4972252;28;19930;-70
2023/08/22 08:59:22;;;;;;;;;;;;;;;45.72;13.51;98887.22;4973860;28;19969;-70
2023/08/22 09:01:48;;;;;;;;;;;;;;;45.92;13.35;98896.50;4975118;28;19949;-69
2023/08/22 09:04:13;;;;;;;;;;;;;;;45.14;14.15;98890.16;4973375;28;19968;-70
2023/08/22 09:06:38;;;;;;;;;;;;;;;44.29;14.72;98892.34;4973302;28;20080;-70
2023/08/22 09:09:08;;;;;;;;;;;;;;;43.58;15.29;98884.97;4973311;28;20301;-70
2023/08/22 09:11:34;;;;;;;;;;;;;;;43.36;15.55;98886.81;4973093;28;19918;-70
2023/08/22 09:13:59;;;;;;;;;;;;;;;43.96;15.55;98884.06;4973059;28;19922;-68
2023/08/22 09:16:25;;;;;;;;;;;;;;;44.32;15.65;98883.41;4974437;28;20366;-70
2023/08/22 09:18:50;;;;;;;;;;;;;;;44.52;15.46;98875.44;4973144;28;20394;-70
2023/08/22 09:21:16;;;;;;;;;;;;;;;44.32;15.49;98883.41;4973127;28;19914;-73
2023/08/22 09:23:42;;;;;;;;;;;;;;;44.00;15.76;98877.53;4973085;28;19918;-71
2023/08/22 09:26:07;;;;;;;;;;;;;;;43.91;15.46;98876.81;4973135;28;19913;-70
2023/08/22 09:28:38;;;;;;;;;;;;;;;43.41;15.81;98872.13;4973057;28;19920;-70
2023/08/22 09:31:03;;;;;;;;;;;;;;;43.01;16.21;98871.31;4973237;28;20012;-71
2023/08/22 09:33:28;;;;;;;;;;;;;;;42.77;16.25;98869.16;4972739;28;20013;-71
2023/08/22 09:35:57;;;;;;;;;;;;;;;42.52;16.51;98862.56;4989555;28;19914;-70
2023/08/22 09:38:22;;;;;;;;;;;;;;;42.16;16.98;98858.28;4972799;28;19914;-70
2023/08/22 09:40:51;;;;;;;;;;;;;;;41.86;17.30;98862.78;4972689;28;19920;-70
2023/08/22 09:43:18;;;;;;;;;;;;;;;41.58;17.95;98858.38;4972914;28;19984;-71
2023/08/22 09:45:43;;;;;;;;;;;;;;;41.31;17.80;98854.00;4972804;28;19914;-71
2023/08/22 09:48:09;;;;;;;;;;;;;;;41.05;18.41;98859.34;4972626;28;19972;-71
2023/08/22 09:50:36;;;;;;;;;;;;;;;40.80;18.41;98861.66;4973069;28;19963;-70
2023/08/22 09:53:01;;;;;;;;;;;;;;;40.64;18.76;98852.22;4972911;28;20008;-70
2023/08/22 09:55:26;;;;;;;;;;;;;;;40.42;18.63;98853.06;4972668;28;20414;-70
2023/08/22 09:57:52;;;;;;;;;;;;;;;40.27;18.98;98851.50;4988887;28;19936;-70
2023/08/22 10:00:17;;;;;;;;;;;;;;;40.13;19.18;98855.09;4972544;28;20437;-70
2023/08/22 10:02:42;;;;;;;;;;;;;;;40.00;19.42;98850.50;4972521;28;19922;-70
2023/08/22 10:05:08;;;;;;;;;;;;;;;39.86;19.47;98849.72;4972512;28;19918;-69
2023/08/22 10:07:34;;;;;;;;;;;;;;;39.77;19.58;98852.38;4972710;28;19976;-69
2023/08/22 10:09:59;;;;;;;;;;;;;;;39.68;19.87;98851.47;4972427;28;19921;-70
2023/08/22 10:12:24;;;;;;;;;;;;;;;39.60;20.10;98853.84;4972065;28;19918;-70
2023/08/22 10:14:56;;;;;;;;;;;;;;;39.53;20.00;98852.63;4956331;28;19918;-70
2023/08/22 10:17:24;;;;;;;;;;;;;;;39.53;20.53;98847.97;4972242;28;19945;-69
2023/08/22 10:19:50;;;;;;;;;;;;;;;39.49;20.83;98848.84;4972387;28;19920;-69
2023/08/22 10:22:16;;;;;;;;;;;;;;;39.45;21.22;98854.13;4972431;28;19910;-69
2023/08/22 10:24:41;;;;;;;;;;;;;;;39.43;21.37;98857.16;4972346;28;20282;-70
2023/08/22 10:27:07;;;;;;;;;;;;;;;39.41;21.34;98856.66;4972427;28;19910;-70
2023/08/22 10:29:33;;;;;;;;;;;;;;;39.43;20.80;98857.16;4973807;28;19914;-70
2023/08/22 10:31:58;;;;;;;;;;;;;;;39.42;20.37;98852.81;4973419;28;19910;-71
2023/08/22 10:34:24;;;;;;;;;;;;;;;39.44;20.06;98841.56;4973668;28;20439;-69
2023/08/22 10:36:56;;;;;;;;;;;;;;;39.63;19.88;98841.47;4972318;28;19914;-70
2023/08/22 10:39:34;;;;;;;;;;;;;;;39.79;19.22;98841.97;4956065;28;20005;-71
2023/08/22 10:42:00;;;;;;;;;;;;;;;39.79;18.81;98837.28;4988476;28;19918;-69
2023/08/22 10:44:30;;;;;;;;;;;;;;;39.82;18.61;98835.03;4973824;28;20333;-70
2023/08/22 10:46:58;;;;;;;;;;;;;;;39.75;18.71;98830.81;4976515;28;20027;-70
2023/08/22 10:49:27;;;;;;;;;;;;;;;39.86;18.70;98830.59;4992122;28;19914;-70
2023/08/22 10:51:59;;;;;;;;;;;;;;;40.00;18.55;98834.09;4976183;28;20328;-71
2023/08/22 10:54:24;;;;;;;;;;;;;;;40.16;18.21;98829.06;4975845;28;19921;-70
2023/08/22 10:56:54;;;;;;;;;;;;;;;40.31;18.08;98825.13;4975638;28;19925;-70
2023/08/22 10:59:20;;;;;;;;;;;;;;;40.31;18.02;98825.13;4975774;28;19977;-70
2023/08/22 11:01:45;;;;;;;;;;;;;;;40.29;17.76;98827.38;4975733;28;19914;-71
2023/08/22 11:04:13;;;;;;;;;;;;;;;40.32;17.91;98818.56;4976107;28;19957;-70
2023/08/22 11:06:38;;;;;;;;;;;;;;;40.35;18.29;98817.94;4975523;28;20396;-70
2023/08/22 11:09:03;;;;;;;;;;;;;;;40.22;18.02;98816.91;4975464;28;19961;-70
2023/08/22 11:11:28;;;;;;;;;;;;;;;40.10;17.84;98816.66;4975348;28;20012;-71
2023/08/22 11:13:54;;;;;;;;;;;;;;;40.07;18.07;98803.59;4976791;28;19925;-76
2023/08/22 11:16:19;;;;;;;;;;;;;;;40.04;18.13;98807.75;4975428;28;19918;-70
2023/08/22 11:18:46;;;;;;;;;;;;;;;40.18;17.94;98812.38;4975231;28;19923;-69
2023/08/22 11:21:11;;;;;;;;;;;;;;;40.20;17.72;98815.59;4975643;28;19914;-70
2023/08/22 11:23:36;;;;;;;;;;;;;;;40.21;17.87;98809.00;4959288;28;20017;-69
2023/08/22 11:26:02;;;;;;;;;;;;;;;40.23;17.71;98804.03;4975371;28;19921;-70
2023/08/22 11:28:34;;;;;;;;;;;;;;;40.33;18.07;98807.31;4975356;28;19992;-71
2023/08/22 11:30:59;;;;;;;;;;;;;;;40.21;17.83;98814.47;4975428;28;19979;-69
2023/08/22 11:33:24;;;;;;;;;;;;;;;40.22;18.08;98803.22;4974797;28;20008;-72
2023/08/22 11:35:50;;;;;;;;;;;;;;;40.33;18.07;98811.97;4975061;28;20060;-70
2023/08/22 11:38:16;;;;;;;;;;;;;;;40.38;18.31;98806.38;4991492;28;20301;-71
2023/08/22 11:40:42;;;;;;;;;;;;;;;40.37;18.21;98809.41;4975171;28;19914;-71
2023/08/22 11:43:09;;;;;;;;;;;;;;;40.31;18.63;98804.09;4974760;28;19921;-71
2023/08/22 11:45:35;;;;;;;;;;;;;;;40.29;18.96;98798.09;4975120;28;19918;-70
2023/08/22 11:48:00;;;;;;;;;;;;;;;40.29;18.67;98794.56;4974723;28;19914;-71
2023/08/22 11:50:27;;;;;;;;;;;;;;;40.25;18.83;98802.59;4974674;28;19918;-70